sensor_id;sensor_type;location;lat;lon;timestamp;P1;durP1;ratioP1;P2;durP2;ratioP2
68229;SDS011;55048;52.220;5.160;2023-03-24T00:00:07;5.90;;;1.13;;
68229;SDS011;55048;52.220;5.160;2023-03-24T00:02:36;9.32;;;1.73;;
68229;SDS011;55048;52.220;5.160;2023-03-24T00:07:32;7.20;;;1.52;;
68229;SDS011;55048;52.220;5.160;2023-03-24T00:09:58;3.97;;;1.27;;
68229;SDS011;55048;52.220;5.160;2023-03-24T00:12:24;6.25;;;1.30;;
68229;SDS011;55048;52.220;5.160;2023-03-24T00:14:50;7.53;;;1.58;;
68229;SDS011;55048;52.220;5.160;2023-03-24T00:17:18;7.28;;;1.80;;
68229;SDS011;55048;52.220;5.160;2023-03-24T00:19:49;4.93;;;1.60;;
68229;SDS011;55048;52.220;5.160;2023-03-24T00:22:20;2.42;;;1.30;;
68229;SDS011;55048;52.220;5.160;2023-03-24T00:24:45;5.78;;;1.60;;
68229;SDS011;55048;52.220;5.160;2023-03-24T00:27:11;3.95;;;1.23;;
68229;SDS011;55048;52.220;5.160;2023-03-24T00:29:38;8.07;;;1.85;;
68229;SDS011;55048;52.220;5.160;2023-03-24T00:32:04;3.13;;;1.33;;
68229;SDS011;55048;52.220;5.160;2023-03-24T00:34:30;2.97;;;1.48;;
68229;SDS011;55048;52.220;5.160;2023-03-24T00:36:55;6.65;;;1.80;;
68229;SDS011;55048;52.220;5.160;2023-03-24T00:39:21;6.18;;;1.60;;
68229;SDS011;55048;52.220;5.160;2023-03-24T00:41:46;5.28;;;1.17;;
68229;SDS011;55048;52.220;5.160;2023-03-24T00:44:13;4.55;;;1.48;;
68229;SDS011;55048;52.220;5.160;2023-03-24T00:46:44;7.93;;;1.60;;
68229;SDS011;55048;52.220;5.160;2023-03-24T00:49:10;3.03;;;1.20;;
68229;SDS011;55048;52.220;5.160;2023-03-24T00:51:38;6.55;;;1.42;;
68229;SDS011;55048;52.220;5.160;2023-03-24T00:54:06;2.75;;;1.40;;
68229;SDS011;55048;52.220;5.160;2023-03-24T00:56:33;2.22;;;0.95;;
68229;SDS011;55048;52.220;5.160;2023-03-24T00:59:02;7.53;;;1.55;;
68229;SDS011;55048;52.220;5.160;2023-03-24T01:01:29;7.57;;;1.70;;
68229;SDS011;55048;52.220;5.160;2023-03-24T01:03:57;6.13;;;1.50;;
68229;SDS011;55048;52.220;5.160;2023-03-24T01:06:24;5.20;;;1.50;;
68229;SDS011;55048;52.220;5.160;2023-03-24T01:08:51;3.80;;;1.33;;
68229;SDS011;55048;52.220;5.160;2023-03-24T01:11:21;4.03;;;1.40;;
68229;SDS011;55048;52.220;5.160;2023-03-24T01:13:49;6.97;;;1.70;;
68229;SDS011;55048;52.220;5.160;2023-03-24T01:16:16;7.07;;;1.40;;
68229;SDS011;55048;52.220;5.160;2023-03-24T01:18:42;5.53;;;1.52;;
68229;SDS011;55048;52.220;5.160;2023-03-24T01:21:08;3.20;;;1.20;;
68229;SDS011;55048;52.220;5.160;2023-03-24T01:23:35;5.03;;;1.60;;
68229;SDS011;55048;52.220;5.160;2023-03-24T01:26:03;3.55;;;1.40;;
68229;SDS011;55048;52.220;5.160;2023-03-24T01:28:31;3.10;;;1.50;;
68229;SDS011;55048;52.220;5.160;2023-03-24T01:30:58;2.88;;;1.40;;
68229;SDS011;55048;52.220;5.160;2023-03-24T01:33:23;4.15;;;1.50;;
68229;SDS011;55048;52.220;5.160;2023-03-24T01:35:49;4.45;;;1.42;;
68229;SDS011;55048;52.220;5.160;2023-03-24T01:38:15;5.82;;;1.33;;
68229;SDS011;55048;52.220;5.160;2023-03-24T01:40:42;4.32;;;1.55;;
68229;SDS011;55048;52.220;5.160;2023-03-24T01:43:24;3.92;;;1.38;;
68229;SDS011;55048;52.220;5.160;2023-03-24T01:45:57;3.42;;;1.38;;
68229;SDS011;55048;52.220;5.160;2023-03-24T01:48:39;4.20;;;1.33;;
68229;SDS011;55048;52.220;5.160;2023-03-24T01:51:10;3.97;;;1.67;;
68229;SDS011;55048;52.220;5.160;2023-03-24T01:53:58;2.00;;;0.90;;
68229;SDS011;55048;52.220;5.160;2023-03-24T01:56:28;2.13;;;1.20;;
68229;SDS011;55048;52.220;5.160;2023-03-24T02:01:45;2.72;;;1.00;;
68229;SDS011;55048;52.220;5.160;2023-03-24T02:04:36;2.75;;;1.35;;
68229;SDS011;55048;52.220;5.160;2023-03-24T02:07:09;2.60;;;1.30;;
68229;SDS011;55048;52.220;5.160;2023-03-24T02:09:40;2.50;;;1.10;;
68229;SDS011;55048;52.220;5.160;2023-03-24T02:12:05;3.83;;;1.38;;
68229;SDS011;55048;52.220;5.160;2023-03-24T02:14:32;2.58;;;1.20;;
68229;SDS011;55048;52.220;5.160;2023-03-24T02:20:24;3.85;;;1.10;;
68229;SDS011;55048;52.220;5.160;2023-03-24T02:25:55;1.08;;;0.73;;
68229;SDS011;55048;52.220;5.160;2023-03-24T02:28:43;2.35;;;0.88;;
68229;SDS011;55048;52.220;5.160;2023-03-24T02:40:22;2.47;;;0.30;;
68229;SDS011;55048;52.220;5.160;2023-03-24T02:43:04;2.38;;;0.40;;
68229;SDS011;55048;52.220;5.160;2023-03-24T02:48:44;0.98;;;0.30;;
68229;SDS011;55048;52.220;5.160;2023-03-24T02:51:29;2.08;;;0.40;;
68229;SDS011;55048;52.220;5.160;2023-03-24T02:54:11;10.30;;;0.47;;
68229;SDS011;55048;52.220;5.160;2023-03-24T03:00:08;2.60;;;0.40;;
68229;SDS011;55048;52.220;5.160;2023-03-24T03:06:20;1.52;;;0.38;;
68229;SDS011;55048;52.220;5.160;2023-03-24T03:08:49;6.18;;;1.20;;
68229;SDS011;55048;52.220;5.160;2023-03-24T03:11:16;3.75;;;0.50;;
68229;SDS011;55048;52.220;5.160;2023-03-24T03:13:47;3.40;;;0.40;;
68229;SDS011;55048;52.220;5.160;2023-03-24T03:16:20;6.60;;;0.50;;
68229;SDS011;55048;52.220;5.160;2023-03-24T03:19:02;6.00;;;0.50;;
68229;SDS011;55048;52.220;5.160;2023-03-24T03:21:35;3.75;;;0.47;;
68229;SDS011;55048;52.220;5.160;2023-03-24T03:24:06;4.85;;;0.40;;
68229;SDS011;55048;52.220;5.160;2023-03-24T03:26:36;3.25;;;0.40;;
68229;SDS011;55048;52.220;5.160;2023-03-24T03:29:04;3.72;;;0.60;;
68229;SDS011;55048;52.220;5.160;2023-03-24T03:31:41;3.28;;;0.35;;
68229;SDS011;55048;52.220;5.160;2023-03-24T03:34:19;7.35;;;0.75;;
68229;SDS011;55048;52.220;5.160;2023-03-24T03:37:11;5.03;;;0.50;;
68229;SDS011;55048;52.220;5.160;2023-03-24T03:39:50;11.98;;;1.13;;
68229;SDS011;55048;52.220;5.160;2023-03-24T03:42:19;6.85;;;0.95;;
68229;SDS011;55048;52.220;5.160;2023-03-24T03:44:45;4.38;;;0.50;;
68229;SDS011;55048;52.220;5.160;2023-03-24T03:47:11;7.20;;;0.73;;
68229;SDS011;55048;52.220;5.160;2023-03-24T03:49:41;3.55;;;0.82;;
68229;SDS011;55048;52.220;5.160;2023-03-24T03:52:07;5.43;;;0.80;;
68229;SDS011;55048;52.220;5.160;2023-03-24T03:54:33;7.65;;;0.82;;
68229;SDS011;55048;52.220;5.160;2023-03-24T03:56:59;4.47;;;0.57;;
68229;SDS011;55048;52.220;5.160;2023-03-24T03:59:45;12.07;;;1.02;;
68229;SDS011;55048;52.220;5.160;2023-03-24T04:17:05;7.78;;;0.75;;
68229;SDS011;55048;52.220;5.160;2023-03-24T04:19:47;7.55;;;0.95;;
68229;SDS011;55048;52.220;5.160;2023-03-24T04:25:28;7.53;;;0.90;;
68229;SDS011;55048;52.220;5.160;2023-03-24T04:28:22;10.13;;;0.80;;
68229;SDS011;55048;52.220;5.160;2023-03-24T04:36:05;7.75;;;0.82;;
68229;SDS011;55048;52.220;5.160;2023-03-24T04:38:58;9.45;;;1.13;;
68229;SDS011;55048;52.220;5.160;2023-03-24T04:41:34;6.80;;;0.75;;
68229;SDS011;55048;52.220;5.160;2023-03-24T04:44:10;8.90;;;0.73;;
68229;SDS011;55048;52.220;5.160;2023-03-24T04:46:49;8.48;;;0.80;;
68229;SDS011;55048;52.220;5.160;2023-03-24T04:49:18;16.15;;;1.70;;
68229;SDS011;55048;52.220;5.160;2023-03-24T04:51:44;9.32;;;0.80;;
68229;SDS011;55048;52.220;5.160;2023-03-24T04:54:15;8.93;;;0.85;;
68229;SDS011;55048;52.220;5.160;2023-03-24T04:56:49;10.65;;;1.33;;
68229;SDS011;55048;52.220;5.160;2023-03-24T04:59:27;9.82;;;1.17;;
68229;SDS011;55048;52.220;5.160;2023-03-24T05:01:54;13.43;;;1.42;;
68229;SDS011;55048;52.220;5.160;2023-03-24T05:04:27;11.85;;;0.80;;
68229;SDS011;55048;52.220;5.160;2023-03-24T05:06:57;20.67;;;2.05;;
68229;SDS011;55048;52.220;5.160;2023-03-24T05:09:24;16.17;;;1.10;;
68229;SDS011;55048;52.220;5.160;2023-03-24T05:11:50;9.73;;;1.25;;
68229;SDS011;55048;52.220;5.160;2023-03-24T05:14:17;13.82;;;0.88;;
68229;SDS011;55048;52.220;5.160;2023-03-24T05:16:43;12.77;;;1.25;;
68229;SDS011;55048;52.220;5.160;2023-03-24T05:19:08;22.33;;;1.38;;
68229;SDS011;55048;52.220;5.160;2023-03-24T05:21:34;13.20;;;1.73;;
68229;SDS011;55048;52.220;5.160;2023-03-24T05:24:01;20.65;;;2.22;;
68229;SDS011;55048;52.220;5.160;2023-03-24T05:26:27;14.20;;;1.60;;
68229;SDS011;55048;52.220;5.160;2023-03-24T05:29:05;21.08;;;1.75;;
68229;SDS011;55048;52.220;5.160;2023-03-24T05:31:31;9.63;;;1.00;;
68229;SDS011;55048;52.220;5.160;2023-03-24T05:34:03;19.13;;;2.40;;
68229;SDS011;55048;52.220;5.160;2023-03-24T05:36:32;9.02;;;1.30;;
68229;SDS011;55048;52.220;5.160;2023-03-24T05:38:58;16.13;;;1.55;;
68229;SDS011;55048;52.220;5.160;2023-03-24T05:41:33;11.02;;;1.50;;
68229;SDS011;55048;52.220;5.160;2023-03-24T05:43:59;16.02;;;2.22;;
68229;SDS011;55048;52.220;5.160;2023-03-24T05:46:24;17.42;;;2.10;;
68229;SDS011;55048;52.220;5.160;2023-03-24T05:48:50;18.95;;;1.40;;
68229;SDS011;55048;52.220;5.160;2023-03-24T05:51:18;22.73;;;2.63;;
68229;SDS011;55048;52.220;5.160;2023-03-24T05:53:46;27.33;;;2.42;;
68229;SDS011;55048;52.220;5.160;2023-03-24T05:56:22;18.23;;;2.13;;
68229;SDS011;55048;52.220;5.160;2023-03-24T05:58:53;16.90;;;2.08;;
68229;SDS011;55048;52.220;5.160;2023-03-24T06:01:20;18.33;;;1.85;;
68229;SDS011;55048;52.220;5.160;2023-03-24T06:03:50;16.48;;;1.90;;
68229;SDS011;55048;52.220;5.160;2023-03-24T06:06:15;16.98;;;1.88;;
68229;SDS011;55048;52.220;5.160;2023-03-24T06:08:43;15.05;;;1.42;;
68229;SDS011;55048;52.220;5.160;2023-03-24T06:11:12;16.75;;;1.52;;
68229;SDS011;55048;52.220;5.160;2023-03-24T06:13:48;15.13;;;1.60;;
68229;SDS011;55048;52.220;5.160;2023-03-24T06:16:14;17.23;;;1.35;;
68229;SDS011;55048;52.220;5.160;2023-03-24T06:18:51;11.23;;;1.10;;
68229;SDS011;55048;52.220;5.160;2023-03-24T06:21:37;19.50;;;1.70;;
68229;SDS011;55048;52.220;5.160;2023-03-24T06:24:02;17.25;;;2.10;;
68229;SDS011;55048;52.220;5.160;2023-03-24T06:26:29;15.85;;;2.22;;
68229;SDS011;55048;52.220;5.160;2023-03-24T06:28:57;11.00;;;1.05;;
68229;SDS011;55048;52.220;5.160;2023-03-24T06:31:25;16.73;;;1.88;;
68229;SDS011;55048;52.220;5.160;2023-03-24T06:33:53;15.73;;;1.48;;
68229;SDS011;55048;52.220;5.160;2023-03-24T06:36:19;14.93;;;1.42;;
68229;SDS011;55048;52.220;5.160;2023-03-24T06:38:45;14.23;;;1.45;;
68229;SDS011;55048;52.220;5.160;2023-03-24T06:41:14;11.98;;;1.40;;
68229;SDS011;55048;52.220;5.160;2023-03-24T06:43:40;18.65;;;1.48;;
68229;SDS011;55048;52.220;5.160;2023-03-24T06:46:06;23.08;;;1.77;;
68229;SDS011;55048;52.220;5.160;2023-03-24T06:48:33;15.23;;;1.27;;
68229;SDS011;55048;52.220;5.160;2023-03-24T06:51:03;11.43;;;1.52;;
68229;SDS011;55048;52.220;5.160;2023-03-24T06:53:28;10.25;;;1.38;;
68229;SDS011;55048;52.220;5.160;2023-03-24T06:55:55;8.48;;;1.10;;
68229;SDS011;55048;52.220;5.160;2023-03-24T06:58:22;10.38;;;1.20;;
68229;SDS011;55048;52.220;5.160;2023-03-24T07:01:05;12.85;;;1.27;;
68229;SDS011;55048;52.220;5.160;2023-03-24T07:03:34;10.68;;;1.13;;
68229;SDS011;55048;52.220;5.160;2023-03-24T07:06:19;20.05;;;1.27;;
68229;SDS011;55048;52.220;5.160;2023-03-24T07:08:50;8.95;;;1.23;;
68229;SDS011;55048;52.220;5.160;2023-03-24T07:11:16;10.65;;;0.88;;
68229;SDS011;55048;52.220;5.160;2023-03-24T07:13:52;21.70;;;1.98;;
68229;SDS011;55048;52.220;5.160;2023-03-24T07:16:17;18.10;;;1.63;;
68229;SDS011;55048;52.220;5.160;2023-03-24T07:18:44;18.98;;;2.00;;
68229;SDS011;55048;52.220;5.160;2023-03-24T07:21:10;13.60;;;1.40;;
68229;SDS011;55048;52.220;5.160;2023-03-24T07:23:36;17.50;;;1.50;;
68229;SDS011;55048;52.220;5.160;2023-03-24T07:26:07;11.73;;;1.55;;
68229;SDS011;55048;52.220;5.160;2023-03-24T07:28:56;15.25;;;1.88;;
68229;SDS011;55048;52.220;5.160;2023-03-24T07:31:30;9.15;;;0.93;;
68229;SDS011;55048;52.220;5.160;2023-03-24T07:34:03;17.55;;;1.50;;
68229;SDS011;55048;52.220;5.160;2023-03-24T07:36:29;13.65;;;1.38;;
68229;SDS011;55048;52.220;5.160;2023-03-24T07:38:56;17.98;;;1.20;;
68229;SDS011;55048;52.220;5.160;2023-03-24T07:41:28;17.65;;;1.98;;
68229;SDS011;55048;52.220;5.160;2023-03-24T07:43:56;16.50;;;1.58;;
68229;SDS011;55048;52.220;5.160;2023-03-24T07:46:31;19.67;;;1.45;;
68229;SDS011;55048;52.220;5.160;2023-03-24T07:48:56;20.13;;;1.10;;
68229;SDS011;55048;52.220;5.160;2023-03-24T07:51:21;13.75;;;1.10;;
68229;SDS011;55048;52.220;5.160;2023-03-24T07:54:08;17.63;;;2.05;;
68229;SDS011;55048;52.220;5.160;2023-03-24T07:56:39;23.73;;;2.35;;
68229;SDS011;55048;52.220;5.160;2023-03-24T07:59:07;23.42;;;1.42;;
68229;SDS011;55048;52.220;5.160;2023-03-24T08:01:45;16.27;;;1.63;;
68229;SDS011;55048;52.220;5.160;2023-03-24T08:04:14;13.88;;;1.25;;
68229;SDS011;55048;52.220;5.160;2023-03-24T08:06:59;10.13;;;1.75;;
68229;SDS011;55048;52.220;5.160;2023-03-24T08:09:25;16.83;;;1.33;;
68229;SDS011;55048;52.220;5.160;2023-03-24T08:11:50;14.90;;;1.63;;
68229;SDS011;55048;52.220;5.160;2023-03-24T08:14:16;18.30;;;2.25;;
68229;SDS011;55048;52.220;5.160;2023-03-24T08:16:41;5.22;;;0.88;;
68229;SDS011;55048;52.220;5.160;2023-03-24T08:19:09;13.25;;;1.02;;
68229;SDS011;55048;52.220;5.160;2023-03-24T08:21:35;16.85;;;1.38;;
68229;SDS011;55048;52.220;5.160;2023-03-24T08:24:01;10.15;;;0.98;;
68229;SDS011;55048;52.220;5.160;2023-03-24T08:26:26;14.95;;;1.27;;
68229;SDS011;55048;52.220;5.160;2023-03-24T08:28:53;17.33;;;1.45;;
68229;SDS011;55048;52.220;5.160;2023-03-24T08:31:18;12.57;;;1.20;;
68229;SDS011;55048;52.220;5.160;2023-03-24T08:33:44;9.68;;;1.10;;
68229;SDS011;55048;52.220;5.160;2023-03-24T08:36:09;13.00;;;1.58;;
68229;SDS011;55048;52.220;5.160;2023-03-24T08:38:35;11.88;;;1.00;;
68229;SDS011;55048;52.220;5.160;2023-03-24T08:41:03;13.85;;;1.63;;
68229;SDS011;55048;52.220;5.160;2023-03-24T08:43:34;19.70;;;1.67;;
68229;SDS011;55048;52.220;5.160;2023-03-24T08:46:01;10.35;;;0.80;;
68229;SDS011;55048;52.220;5.160;2023-03-24T08:48:27;5.88;;;0.70;;
68229;SDS011;55048;52.220;5.160;2023-03-24T08:50:54;11.13;;;1.13;;
68229;SDS011;55048;52.220;5.160;2023-03-24T08:53:20;15.38;;;1.50;;
68229;SDS011;55048;52.220;5.160;2023-03-24T08:55:46;7.75;;;1.00;;
68229;SDS011;55048;52.220;5.160;2023-03-24T08:58:13;14.73;;;1.35;;
68229;SDS011;55048;52.220;5.160;2023-03-24T09:00:40;10.75;;;1.15;;
68229;SDS011;55048;52.220;5.160;2023-03-24T09:03:06;13.90;;;0.90;;
68229;SDS011;55048;52.220;5.160;2023-03-24T09:05:31;9.93;;;1.10;;
68229;SDS011;55048;52.220;5.160;2023-03-24T09:07:57;8.80;;;1.20;;
68229;SDS011;55048;52.220;5.160;2023-03-24T09:10:24;9.70;;;1.10;;
68229;SDS011;55048;52.220;5.160;2023-03-24T09:12:50;12.68;;;1.60;;
68229;SDS011;55048;52.220;5.160;2023-03-24T09:15:15;13.13;;;1.15;;
68229;SDS011;55048;52.220;5.160;2023-03-24T09:17:41;10.20;;;1.33;;
68229;SDS011;55048;52.220;5.160;2023-03-24T09:20:07;9.48;;;1.27;;
68229;SDS011;55048;52.220;5.160;2023-03-24T09:22:39;15.95;;;1.13;;
68229;SDS011;55048;52.220;5.160;2023-03-24T09:25:09;19.88;;;1.80;;
68229;SDS011;55048;52.220;5.160;2023-03-24T09:27:37;10.45;;;0.90;;
68229;SDS011;55048;52.220;5.160;2023-03-24T09:30:03;13.25;;;0.90;;
68229;SDS011;55048;52.220;5.160;2023-03-24T09:32:30;9.20;;;0.90;;
68229;SDS011;55048;52.220;5.160;2023-03-24T09:34:57;9.05;;;1.08;;
68229;SDS011;55048;52.220;5.160;2023-03-24T09:37:22;14.00;;;1.38;;
68229;SDS011;55048;52.220;5.160;2023-03-24T09:39:48;16.30;;;1.75;;
68229;SDS011;55048;52.220;5.160;2023-03-24T09:42:17;15.70;;;1.27;;
68229;SDS011;55048;52.220;5.160;2023-03-24T09:44:47;9.07;;;1.38;;
68229;SDS011;55048;52.220;5.160;2023-03-24T09:47:28;13.88;;;1.92;;
68229;SDS011;55048;52.220;5.160;2023-03-24T09:50:00;8.32;;;0.90;;
68229;SDS011;55048;52.220;5.160;2023-03-24T09:52:35;8.53;;;0.90;;
68229;SDS011;55048;52.220;5.160;2023-03-24T09:55:04;5.68;;;1.48;;
68229;SDS011;55048;52.220;5.160;2023-03-24T09:57:35;12.68;;;1.02;;
68229;SDS011;55048;52.220;5.160;2023-03-24T10:00:35;6.00;;;0.70;;
68229;SDS011;55048;52.220;5.160;2023-03-24T10:03:09;6.38;;;1.00;;
68229;SDS011;55048;52.220;5.160;2023-03-24T10:05:46;13.68;;;1.20;;
68229;SDS011;55048;52.220;5.160;2023-03-24T10:08:34;10.70;;;0.80;;
68229;SDS011;55048;52.220;5.160;2023-03-24T10:11:03;5.40;;;0.68;;
68229;SDS011;55048;52.220;5.160;2023-03-24T10:16:14;10.35;;;1.30;;
68229;SDS011;55048;52.220;5.160;2023-03-24T10:18:49;6.65;;;0.73;;
68229;SDS011;55048;52.220;5.160;2023-03-24T10:21:25;10.50;;;1.27;;
68229;SDS011;55048;52.220;5.160;2023-03-24T10:24:01;9.55;;;2.13;;
68229;SDS011;55048;52.220;5.160;2023-03-24T10:26:35;15.23;;;1.50;;
68229;SDS011;55048;52.220;5.160;2023-03-24T10:31:52;13.63;;;1.00;;
68229;SDS011;55048;52.220;5.160;2023-03-24T10:34:22;12.75;;;1.20;;
68229;SDS011;55048;52.220;5.160;2023-03-24T10:36:51;9.90;;;1.20;;
68229;SDS011;55048;52.220;5.160;2023-03-24T10:39:18;16.27;;;1.83;;
68229;SDS011;55048;52.220;5.160;2023-03-24T10:41:43;7.05;;;0.80;;
68229;SDS011;55048;52.220;5.160;2023-03-24T10:44:09;9.18;;;0.85;;
68229;SDS011;55048;52.220;5.160;2023-03-24T10:46:37;13.43;;;1.02;;
68229;SDS011;55048;52.220;5.160;2023-03-24T10:51:43;16.70;;;1.35;;
68229;SDS011;55048;52.220;5.160;2023-03-24T10:56:48;10.90;;;1.08;;
68229;SDS011;55048;52.220;5.160;2023-03-24T10:59:25;15.05;;;0.90;;
68229;SDS011;55048;52.220;5.160;2023-03-24T11:04:38;11.95;;;0.90;;
68229;SDS011;55048;52.220;5.160;2023-03-24T11:07:17;8.65;;;0.75;;
68229;SDS011;55048;52.220;5.160;2023-03-24T11:09:46;14.20;;;1.00;;
68229;SDS011;55048;52.220;5.160;2023-03-24T11:12:23;14.55;;;1.65;;
68229;SDS011;55048;52.220;5.160;2023-03-24T11:14:51;4.43;;;0.50;;
68229;SDS011;55048;52.220;5.160;2023-03-24T11:17:24;4.68;;;0.65;;
68229;SDS011;55048;52.220;5.160;2023-03-24T11:19:55;8.15;;;1.10;;
68229;SDS011;55048;52.220;5.160;2023-03-24T11:22:21;9.00;;;1.15;;
68229;SDS011;55048;52.220;5.160;2023-03-24T11:24:51;10.40;;;0.82;;
68229;SDS011;55048;52.220;5.160;2023-03-24T11:27:20;14.07;;;1.50;;
68229;SDS011;55048;52.220;5.160;2023-03-24T11:29:50;8.02;;;0.80;;
68229;SDS011;55048;52.220;5.160;2023-03-24T11:32:21;11.02;;;0.90;;
68229;SDS011;55048;52.220;5.160;2023-03-24T11:34:55;15.05;;;1.00;;
68229;SDS011;55048;52.220;5.160;2023-03-24T11:37:33;12.30;;;1.00;;
68229;SDS011;55048;52.220;5.160;2023-03-24T11:42:37;11.25;;;1.00;;
68229;SDS011;55048;52.220;5.160;2023-03-24T11:45:19;5.75;;;0.80;;
68229;SDS011;55048;52.220;5.160;2023-03-24T11:47:48;7.47;;;0.60;;
68229;SDS011;55048;52.220;5.160;2023-03-24T11:50:33;14.50;;;1.05;;
68229;SDS011;55048;52.220;5.160;2023-03-24T11:53:06;5.25;;;0.77;;
68229;SDS011;55048;52.220;5.160;2023-03-24T11:56:02;8.90;;;1.10;;
68229;SDS011;55048;52.220;5.160;2023-03-24T11:58:45;8.68;;;1.02;;
68229;SDS011;55048;52.220;5.160;2023-03-24T12:14:41;11.80;;;0.95;;
68229;SDS011;55048;52.220;5.160;2023-03-24T12:17:22;10.00;;;0.80;;
68229;SDS011;55048;52.220;5.160;2023-03-24T12:30:48;6.10;;;0.90;;
68229;SDS011;55048;52.220;5.160;2023-03-24T12:33:57;4.50;;;0.50;;
68229;SDS011;55048;52.220;5.160;2023-03-24T12:39:26;6.68;;;0.70;;
68229;SDS011;55048;52.220;5.160;2023-03-24T12:42:11;7.25;;;0.55;;
68229;SDS011;55048;52.220;5.160;2023-03-24T12:44:42;1.92;;;0.30;;
68229;SDS011;55048;52.220;5.160;2023-03-24T12:55:58;5.63;;;0.50;;
68229;SDS011;55048;52.220;5.160;2023-03-24T12:58:37;4.90;;;0.47;;
68229;SDS011;55048;52.220;5.160;2023-03-24T13:06:46;11.68;;;0.52;;
68229;SDS011;55048;52.220;5.160;2023-03-24T13:12:14;6.95;;;0.55;;
68229;SDS011;55048;52.220;5.160;2023-03-24T13:14:54;9.15;;;0.80;;
68229;SDS011;55048;52.220;5.160;2023-03-24T13:20:32;8.15;;;0.68;;
68229;SDS011;55048;52.220;5.160;2023-03-24T13:23:18;7.82;;;0.70;;
68229;SDS011;55048;52.220;5.160;2023-03-24T13:26:22;11.18;;;0.82;;
68229;SDS011;55048;52.220;5.160;2023-03-24T13:31:39;11.35;;;0.85;;
68229;SDS011;55048;52.220;5.160;2023-03-24T13:34:15;14.05;;;0.77;;
68229;SDS011;55048;52.220;5.160;2023-03-24T13:36:58;7.93;;;0.68;;
68229;SDS011;55048;52.220;5.160;2023-03-24T13:39:27;9.02;;;0.98;;
68229;SDS011;55048;52.220;5.160;2023-03-24T13:41:56;5.43;;;0.73;;
68229;SDS011;55048;52.220;5.160;2023-03-24T13:44:24;6.38;;;0.80;;
68229;SDS011;55048;52.220;5.160;2023-03-24T13:49:32;7.53;;;0.98;;
68229;SDS011;55048;52.220;5.160;2023-03-24T13:52:00;10.77;;;0.88;;
68229;SDS011;55048;52.220;5.160;2023-03-24T13:54:28;10.65;;;1.42;;
68229;SDS011;55048;52.220;5.160;2023-03-24T13:57:05;10.57;;;0.90;;
68229;SDS011;55048;52.220;5.160;2023-03-24T13:59:39;9.98;;;0.95;;
68229;SDS011;55048;52.220;5.160;2023-03-24T14:05:56;6.35;;;0.77;;
68229;SDS011;55048;52.220;5.160;2023-03-24T14:13:55;4.63;;;0.40;;
68229;SDS011;55048;52.220;5.160;2023-03-24T14:19:29;1.60;;;0.28;;
68229;SDS011;55048;52.220;5.160;2023-03-24T14:24:38;2.10;;;0.43;;
68229;SDS011;55048;52.220;5.160;2023-03-24T14:32:38;3.58;;;0.50;;
68229;SDS011;55048;52.220;5.160;2023-03-24T14:35:16;6.53;;;0.60;;
68229;SDS011;55048;52.220;5.160;2023-03-24T14:40:43;10.25;;;0.82;;
68229;SDS011;55048;52.220;5.160;2023-03-24T14:43:24;2.97;;;0.60;;
68229;SDS011;55048;52.220;5.160;2023-03-24T14:48:24;8.77;;;0.60;;
68229;SDS011;55048;52.220;5.160;2023-03-24T14:50:52;14.63;;;0.82;;
68229;SDS011;55048;52.220;5.160;2023-03-24T14:53:19;4.20;;;0.75;;
68229;SDS011;55048;52.220;5.160;2023-03-24T14:55:47;8.20;;;0.60;;
68229;SDS011;55048;52.220;5.160;2023-03-24T14:58:19;4.88;;;0.77;;
68229;SDS011;55048;52.220;5.160;2023-03-24T15:00:54;4.57;;;0.57;;
68229;SDS011;55048;52.220;5.160;2023-03-24T15:06:15;8.80;;;0.80;;
68229;SDS011;55048;52.220;5.160;2023-03-24T15:08:49;6.57;;;0.60;;
68229;SDS011;55048;52.220;5.160;2023-03-24T15:11:17;5.72;;;0.60;;
68229;SDS011;55048;52.220;5.160;2023-03-24T15:13:49;8.57;;;0.70;;
68229;SDS011;55048;52.220;5.160;2023-03-24T15:21:38;6.93;;;0.60;;
68229;SDS011;55048;52.220;5.160;2023-03-24T15:26:47;7.95;;;0.60;;
68229;SDS011;55048;52.220;5.160;2023-03-24T15:29:13;6.85;;;0.60;;
68229;SDS011;55048;52.220;5.160;2023-03-24T15:31:38;5.43;;;0.50;;
68229;SDS011;55048;52.220;5.160;2023-03-24T15:36:59;11.40;;;0.85;;
68229;SDS011;55048;52.220;5.160;2023-03-24T15:39:37;9.02;;;0.63;;
68229;SDS011;55048;52.220;5.160;2023-03-24T15:42:05;5.47;;;0.60;;
68229;SDS011;55048;52.220;5.160;2023-03-24T15:44:37;7.97;;;0.82;;
68229;SDS011;55048;52.220;5.160;2023-03-24T15:47:05;8.07;;;0.80;;
68229;SDS011;55048;52.220;5.160;2023-03-24T15:49:54;12.88;;;0.90;;
68229;SDS011;55048;52.220;5.160;2023-03-24T15:54:46;6.30;;;0.60;;
68229;SDS011;55048;52.220;5.160;2023-03-24T15:57:16;7.45;;;0.80;;
68229;SDS011;55048;52.220;5.160;2023-03-24T15:59:44;8.60;;;1.13;;
68229;SDS011;55048;52.220;5.160;2023-03-24T16:02:16;8.50;;;0.80;;
68229;SDS011;55048;52.220;5.160;2023-03-24T16:04:45;8.80;;;0.70;;
68229;SDS011;55048;52.220;5.160;2023-03-24T16:07:20;9.90;;;0.90;;
68229;SDS011;55048;52.220;5.160;2023-03-24T16:10:00;13.45;;;1.10;;
68229;SDS011;55048;52.220;5.160;2023-03-24T16:12:33;10.23;;;0.75;;
68229;SDS011;55048;52.220;5.160;2023-03-24T16:15:00;6.55;;;0.60;;
68229;SDS011;55048;52.220;5.160;2023-03-24T16:17:29;5.95;;;0.70;;
68229;SDS011;55048;52.220;5.160;2023-03-24T16:19:55;6.60;;;0.70;;
68229;SDS011;55048;52.220;5.160;2023-03-24T16:22:20;8.05;;;0.75;;
68229;SDS011;55048;52.220;5.160;2023-03-24T16:24:46;8.05;;;0.75;;
68229;SDS011;55048;52.220;5.160;2023-03-24T16:27:11;7.70;;;0.60;;
68229;SDS011;55048;52.220;5.160;2023-03-24T16:29:37;7.28;;;0.73;;
68229;SDS011;55048;52.220;5.160;2023-03-24T16:32:03;7.85;;;0.80;;
68229;SDS011;55048;52.220;5.160;2023-03-24T16:34:28;9.13;;;0.75;;
68229;SDS011;55048;52.220;5.160;2023-03-24T16:36:55;11.07;;;1.05;;
68229;SDS011;55048;52.220;5.160;2023-03-24T16:39:25;8.77;;;1.77;;
68229;SDS011;55048;52.220;5.160;2023-03-24T16:41:52;8.85;;;0.75;;
68229;SDS011;55048;52.220;5.160;2023-03-24T16:44:18;8.30;;;0.52;;
68229;SDS011;55048;52.220;5.160;2023-03-24T16:46:44;10.70;;;1.20;;
68229;SDS011;55048;52.220;5.160;2023-03-24T16:49:12;11.18;;;1.00;;
68229;SDS011;55048;52.220;5.160;2023-03-24T16:51:39;8.70;;;0.70;;
68229;SDS011;55048;52.220;5.160;2023-03-24T16:54:05;7.82;;;0.68;;
68229;SDS011;55048;52.220;5.160;2023-03-24T16:56:32;6.03;;;0.40;;
68229;SDS011;55048;52.220;5.160;2023-03-24T16:58:57;5.45;;;0.65;;
68229;SDS011;55048;52.220;5.160;2023-03-24T17:01:27;8.40;;;1.00;;
68229;SDS011;55048;52.220;5.160;2023-03-24T17:04:13;7.85;;;0.60;;
68229;SDS011;55048;52.220;5.160;2023-03-24T17:06:44;14.00;;;1.30;;
68229;SDS011;55048;52.220;5.160;2023-03-24T17:09:13;4.57;;;0.52;;
68229;SDS011;55048;52.220;5.160;2023-03-24T17:11:40;7.40;;;0.70;;
68229;SDS011;55048;52.220;5.160;2023-03-24T17:14:07;7.80;;;0.90;;
68229;SDS011;55048;52.220;5.160;2023-03-24T17:16:37;8.68;;;0.80;;
68229;SDS011;55048;52.220;5.160;2023-03-24T17:19:08;10.43;;;0.82;;
68229;SDS011;55048;52.220;5.160;2023-03-24T17:21:39;6.82;;;0.80;;
68229;SDS011;55048;52.220;5.160;2023-03-24T17:24:20;14.13;;;1.20;;
68229;SDS011;55048;52.220;5.160;2023-03-24T17:26:48;11.35;;;0.82;;
68229;SDS011;55048;52.220;5.160;2023-03-24T17:29:13;8.68;;;1.20;;
68229;SDS011;55048;52.220;5.160;2023-03-24T17:31:39;14.10;;;1.30;;
68229;SDS011;55048;52.220;5.160;2023-03-24T17:34:08;3.75;;;0.60;;
68229;SDS011;55048;52.220;5.160;2023-03-24T17:36:38;10.32;;;0.90;;
68229;SDS011;55048;52.220;5.160;2023-03-24T17:39:04;5.00;;;0.40;;
68229;SDS011;55048;52.220;5.160;2023-03-24T17:41:29;10.20;;;1.10;;
68229;SDS011;55048;52.220;5.160;2023-03-24T17:43:55;13.45;;;0.90;;
68229;SDS011;55048;52.220;5.160;2023-03-24T17:46:20;9.43;;;0.68;;
68229;SDS011;55048;52.220;5.160;2023-03-24T17:48:46;15.23;;;1.40;;